createdAt,value
2022-10-30T00:00:43.982Z,101169.34
2022-10-30T00:03:12.068Z,101169.28
2022-10-30T00:05:40.893Z,101171.88
2022-10-30T00:08:07.643Z,101173.81
2022-10-30T00:10:34.722Z,101167.62
2022-10-30T00:13:02.659Z,101157.72
2022-10-30T00:15:29.345Z,101157.88
2022-10-30T00:17:56.306Z,101161.16
2022-10-30T00:20:23.225Z,101157.28
2022-10-30T00:22:49.962Z,101145.56
2022-10-30T00:25:16.862Z,101143.94
2022-10-30T00:27:43.521Z,101138.34
2022-10-30T00:30:10.678Z,101147.25
2022-10-30T00:32:37.348Z,101148.22
2022-10-30T00:35:04.692Z,101141.00
2022-10-30T00:37:31.342Z,101142.66
2022-10-30T00:39:58.022Z,101151.78
2022-10-30T00:42:29.482Z,101150.75
2022-10-30T00:44:56.213Z,101150.75
2022-10-30T00:47:25.972Z,101156.53
2022-10-30T00:50:11.542Z,101151.16
2022-10-30T00:52:43.192Z,101144.91
2022-10-30T00:55:12.093Z,101144.91
2022-10-30T00:57:39.809Z,101144.66
2022-10-30T01:00:07.892Z,101139.28
2022-10-30T01:02:34.729Z,101138.06
2022-10-30T01:05:02.088Z,101123.84
2022-10-30T01:07:28.799Z,101120.38
2022-10-30T01:09:55.532Z,101105.97
2022-10-30T01:12:22.233Z,101107.13
2022-10-30T01:14:53.550Z,101112.06
2022-10-30T01:17:23.043Z,101119.44
2022-10-30T01:19:58.893Z,101129.53
2022-10-30T01:22:25.591Z,101128.91
2022-10-30T01:24:52.272Z,101124.09
2022-10-30T01:27:28.142Z,101118.19
2022-10-30T01:30:16.024Z,101107.87
2022-10-30T01:33:06.128Z,101101.84
2022-10-30T01:35:37.922Z,101094.31
2022-10-30T01:38:10.502Z,101099.81
2022-10-30T01:40:37.402Z,101096.94
2022-10-30T01:43:04.342Z,101090.50
2022-10-30T01:45:43.373Z,101095.38
2022-10-30T01:48:36.461Z,101087.63
2022-10-30T01:51:03.114Z,101089.22
2022-10-30T01:53:36.721Z,101089.69
2022-10-30T01:56:06.331Z,101095.63
2022-10-30T01:58:54.672Z,101092.00
2022-10-30T02:01:21.716Z,101087.19
2022-10-30T02:03:49.102Z,101085.25
2022-10-30T02:06:15.873Z,101082.13
2022-10-30T02:08:42.555Z,101081.06
2022-10-30T02:11:10.154Z,101083.06
2022-10-30T02:13:37.167Z,101085.63
2022-10-30T02:16:03.973Z,101085.78
2022-10-30T02:18:30.755Z,101084.66
2022-10-30T02:20:57.613Z,101085.25
2022-10-30T02:23:24.391Z,101082.50
2022-10-30T02:25:51.075Z,101068.28
2022-10-30T02:28:17.721Z,101062.03
2022-10-30T02:30:44.411Z,101059.38
2022-10-30T02:33:11.440Z,101068.47
2022-10-30T02:35:38.211Z,101072.72
2022-10-30T02:38:04.854Z,101070.94
2022-10-30T02:40:31.695Z,101069.97
2022-10-30T02:42:58.435Z,101062.97
2022-10-30T02:45:25.192Z,101070.81
2022-10-30T02:47:51.912Z,101074.22
2022-10-30T02:50:18.711Z,101083.75
2022-10-30T02:52:45.474Z,101087.31
2022-10-30T02:55:12.193Z,101084.91
2022-10-30T02:57:38.891Z,101080.44
2022-10-30T03:00:08.721Z,101087.22
2022-10-30T03:02:35.703Z,101085.00
2022-10-30T03:05:02.626Z,101082.00
2022-10-30T03:07:29.422Z,101079.75
2022-10-30T03:09:56.313Z,101074.00
2022-10-30T03:12:23.239Z,101072.91
2022-10-30T03:14:50.006Z,101072.16
2022-10-30T03:17:16.912Z,101066.84
2022-10-30T03:19:43.725Z,101067.63
2022-10-30T03:22:10.543Z,101067.06
2022-10-30T03:24:38.441Z,101072.00
2022-10-30T03:27:05.244Z,101057.72
2022-10-30T03:29:32.108Z,101059.00
2022-10-30T03:31:58.913Z,101065.69
2022-10-30T03:34:25.763Z,101062.41
2022-10-30T03:36:52.532Z,101059.81
2022-10-30T03:39:19.483Z,101067.91
2022-10-30T03:41:46.241Z,101064.81
2022-10-30T03:44:13.110Z,101057.78
2022-10-30T03:46:39.812Z,101052.75
2022-10-30T03:49:06.541Z,101062.09
2022-10-30T03:51:33.252Z,101057.94
2022-10-30T03:53:59.962Z,101066.50
2022-10-30T03:56:26.612Z,101066.94
2022-10-30T03:58:53.483Z,101066.56
2022-10-30T04:01:20.275Z,101066.78
2022-10-30T04:03:47.001Z,101069.12
2022-10-30T04:06:13.762Z,101059.16
2022-10-30T04:08:40.485Z,101063.50
2022-10-30T04:11:09.693Z,101063.50
2022-10-30T04:13:36.372Z,101060.75
2022-10-30T04:16:03.132Z,101047.41
2022-10-30T04:18:29.862Z,101052.25
2022-10-30T04:20:56.533Z,101052.06
2022-10-30T04:23:23.295Z,101049.69
2022-10-30T04:25:49.964Z,101048.47
2022-10-30T04:28:16.692Z,101052.78
2022-10-30T04:30:43.671Z,101053.94
2022-10-30T04:33:13.833Z,101058.31
2022-10-30T04:35:41.475Z,101052.06
2022-10-30T04:38:10.592Z,101052.69
2022-10-30T04:40:38.210Z,101045.56
2022-10-30T04:43:05.812Z,101048.41
2022-10-30T04:45:32.522Z,101051.81
2022-10-30T04:48:10.866Z,101045.72
2022-10-30T04:50:38.311Z,101057.13
2022-10-30T04:53:08.399Z,101062.09
2022-10-30T04:55:35.112Z,101058.72
2022-10-30T04:58:04.993Z,101065.25
2022-10-30T05:00:32.054Z,101061.72
2022-10-30T05:03:00.183Z,101059.66
2022-10-30T05:05:27.232Z,101055.56
2022-10-30T05:07:54.105Z,101060.00
2022-10-30T05:10:20.833Z,101066.66
2022-10-30T05:12:47.585Z,101064.47
2022-10-30T05:15:14.663Z,101070.00
2022-10-30T05:17:41.807Z,101067.19
2022-10-30T05:20:08.713Z,101067.69
2022-10-30T05:22:35.434Z,101070.78
2022-10-30T05:25:02.123Z,101075.97
2022-10-30T05:27:28.779Z,101071.91
2022-10-30T05:29:55.482Z,101075.78
2022-10-30T05:32:22.255Z,101068.53
2022-10-30T05:34:48.913Z,101066.41
2022-10-30T05:37:15.608Z,101079.00
2022-10-30T05:39:42.272Z,101086.19
2022-10-30T05:42:13.531Z,101081.28
2022-10-30T05:44:59.792Z,101090.87
2022-10-30T05:47:27.408Z,101090.94
2022-10-30T05:49:54.083Z,101087.50
2022-10-30T05:52:20.810Z,101085.63
2022-10-30T05:54:47.513Z,101098.59
2022-10-30T05:57:14.255Z,101086.47
2022-10-30T05:59:40.992Z,101085.19
2022-10-30T06:02:07.777Z,101080.53
2022-10-30T06:04:34.521Z,101083.19
2022-10-30T06:07:01.252Z,101081.44
2022-10-30T06:09:27.932Z,101084.75
2022-10-30T06:11:54.592Z,101089.81
2022-10-30T06:14:21.612Z,101085.19
2022-10-30T06:16:48.648Z,101091.06
2022-10-30T06:19:18.394Z,101099.00
2022-10-30T06:21:45.853Z,101101.84
2022-10-30T06:24:12.603Z,101100.75
2022-10-30T06:26:39.303Z,101108.00
2022-10-30T06:29:06.007Z,101097.94
2022-10-30T06:31:32.746Z,101109.34
2022-10-30T06:33:59.500Z,101108.78
2022-10-30T06:36:26.235Z,101115.56
2022-10-30T06:38:53.012Z,101112.25
2022-10-30T06:41:19.683Z,101117.81
2022-10-30T06:43:46.390Z,101129.84
2022-10-30T06:46:13.128Z,101124.87
2022-10-30T06:48:39.982Z,101124.38
2022-10-30T06:51:06.653Z,101128.59
2022-10-30T06:53:33.602Z,101133.09
2022-10-30T06:56:01.822Z,101136.72
2022-10-30T06:58:28.997Z,101147.12
2022-10-30T07:00:56.053Z,101142.13
2022-10-30T07:03:22.803Z,101138.69
2022-10-30T07:05:49.462Z,101139.75
2022-10-30T07:08:16.254Z,101145.25
2022-10-30T07:10:43.116Z,101139.88
2022-10-30T07:13:09.942Z,101141.47
2022-10-30T07:15:36.633Z,101140.34
2022-10-30T07:18:04.146Z,101142.06
2022-10-30T07:20:32.512Z,101141.41
2022-10-30T07:22:59.221Z,101144.47
2022-10-30T07:25:25.901Z,101139.94
2022-10-30T07:27:53.365Z,101135.75
2022-10-30T07:30:21.385Z,101145.50
2022-10-30T07:32:57.027Z,101143.66
2022-10-30T07:35:23.926Z,101145.56
2022-10-30T07:37:50.656Z,101149.44
2022-10-30T07:40:17.631Z,101151.06
2022-10-30T07:42:44.338Z,101152.88
2022-10-30T07:45:11.307Z,101152.41
2022-10-30T07:47:41.805Z,101154.88
2022-10-30T07:50:09.753Z,101151.31
2022-10-30T07:52:36.423Z,101149.78
2022-10-30T07:55:03.914Z,101147.28
2022-10-30T07:57:37.253Z,101147.69
2022-10-30T08:00:05.037Z,101145.13
2022-10-30T08:02:32.090Z,101140.22
2022-10-30T08:04:58.982Z,101142.63
2022-10-30T08:07:29.672Z,101144.00
2022-10-30T08:09:56.372Z,101144.16
2022-10-30T08:12:23.022Z,101137.88
2022-10-30T08:14:50.238Z,101137.91
2022-10-30T08:17:17.022Z,101139.22
2022-10-30T08:19:43.713Z,101146.31
2022-10-30T08:22:10.911Z,101143.16
2022-10-30T08:24:37.642Z,101136.97
2022-10-30T08:27:04.902Z,101134.84
2022-10-30T08:29:31.748Z,101140.84
2022-10-30T08:31:58.422Z,101130.03
2022-10-30T08:34:26.864Z,101141.56
2022-10-30T08:36:53.873Z,101145.78
2022-10-30T08:39:20.804Z,101144.94
2022-10-30T08:41:50.392Z,101147.31
2022-10-30T08:44:17.604Z,101144.66
2022-10-30T08:46:44.492Z,101140.62
2022-10-30T08:49:11.252Z,101138.97
2022-10-30T08:51:38.545Z,101141.34
2022-10-30T08:54:05.474Z,101140.22
2022-10-30T08:56:32.254Z,101138.91
2022-10-30T08:58:59.291Z,101141.91
2022-10-30T09:01:26.156Z,101139.59
2022-10-30T09:03:53.063Z,101131.31
2022-10-30T09:06:19.813Z,101143.84
2022-10-30T09:08:47.031Z,101149.37
2022-10-30T09:11:14.004Z,101144.72
2022-10-30T09:13:40.824Z,101155.37
2022-10-30T09:16:07.843Z,101153.59
2022-10-30T09:18:34.552Z,101155.31
2022-10-30T09:21:04.587Z,101154.25
2022-10-30T09:23:32.329Z,101164.31
2022-10-30T09:25:59.115Z,101157.62
2022-10-30T09:28:25.855Z,101164.03
2022-10-30T09:30:56.583Z,101167.22
2022-10-30T09:33:23.473Z,101168.00
2022-10-30T09:35:50.212Z,101169.56
2022-10-30T09:38:17.013Z,101157.03
2022-10-30T09:40:59.023Z,101162.00
2022-10-30T09:43:33.382Z,101158.41
2022-10-30T09:46:38.967Z,101153.69
2022-10-30T09:49:06.255Z,101145.03
2022-10-30T09:51:48.280Z,101154.59
2022-10-30T09:54:20.903Z,101157.38
2022-10-30T09:57:01.200Z,101156.59
2022-10-30T09:59:43.511Z,101148.97
2022-10-30T10:02:22.392Z,101143.72
2022-10-30T10:04:56.687Z,101147.84
2022-10-30T10:07:23.402Z,101154.84
2022-10-30T10:09:52.863Z,101152.66
2022-10-30T10:12:20.051Z,101152.25
2022-10-30T10:14:48.188Z,101154.31
2022-10-30T10:17:20.393Z,101142.28
2022-10-30T10:19:55.575Z,101137.25
2022-10-30T10:23:01.407Z,101140.03
2022-10-30T10:25:31.418Z,101140.75
2022-10-30T10:27:58.212Z,101144.00
2022-10-30T10:30:26.392Z,101142.94
2022-10-30T10:33:12.024Z,101140.38
2022-10-30T10:36:01.802Z,101140.56
2022-10-30T10:38:34.479Z,101131.97
2022-10-30T10:41:29.053Z,101133.03
2022-10-30T10:43:55.752Z,101132.47
2022-10-30T10:46:48.492Z,101127.09
2022-10-30T10:49:18.062Z,101131.03
2022-10-30T10:51:49.222Z,101122.94
2022-10-30T10:54:22.692Z,101132.84
2022-10-30T10:56:50.883Z,101129.19
2022-10-30T10:59:23.103Z,101126.00
2022-10-30T11:01:54.848Z,101123.22
2022-10-30T11:04:21.594Z,101119.38
2022-10-30T11:06:50.782Z,101122.88
2022-10-30T11:09:22.250Z,101122.72
2022-10-30T11:11:49.703Z,101126.47
2022-10-30T11:14:21.143Z,101121.16
2022-10-30T11:16:57.233Z,101117.63
2022-10-30T11:19:25.273Z,101118.50
2022-10-30T11:21:53.322Z,101117.97
2022-10-30T11:24:31.070Z,101117.00
2022-10-30T11:26:58.881Z,101113.78
2022-10-30T11:29:30.068Z,101113.56
2022-10-30T11:32:03.854Z,101112.56
2022-10-30T11:34:35.114Z,101116.56
2022-10-30T11:37:02.304Z,101113.44
2022-10-30T11:39:34.285Z,101109.44
2022-10-30T11:42:01.036Z,101106.53
2022-10-30T11:44:32.672Z,101104.31
2022-10-30T11:46:59.907Z,101108.88
2022-10-30T11:49:30.833Z,101096.16
2022-10-30T11:51:57.761Z,101094.97
2022-10-30T11:54:24.801Z,101092.44
2022-10-30T11:56:52.122Z,101096.00
2022-10-30T11:59:20.185Z,101089.94
2022-10-30T12:02:04.003Z,101088.47
2022-10-30T12:04:33.230Z,101085.97
2022-10-30T12:07:17.353Z,101076.09
2022-10-30T12:09:44.752Z,101073.72
2022-10-30T12:12:12.955Z,101072.44
2022-10-30T12:14:39.761Z,101077.47
2022-10-30T12:17:06.643Z,101069.59
2022-10-30T12:19:33.484Z,101082.25
2022-10-30T12:22:01.663Z,101081.41
2022-10-30T12:24:32.364Z,101075.44
2022-10-30T12:27:02.735Z,101065.56
2022-10-30T12:30:07.238Z,101068.81
2022-10-30T12:32:46.687Z,101073.87
2022-10-30T12:35:36.197Z,101067.00
2022-10-30T12:38:04.663Z,101071.47
2022-10-30T12:40:33.455Z,101065.91
2022-10-30T12:43:08.743Z,101058.09
2022-10-30T12:45:43.831Z,101065.47
2022-10-30T12:48:26.222Z,101065.97
2022-10-30T12:51:16.022Z,101065.28
2022-10-30T12:53:45.153Z,101061.84
2022-10-30T12:56:19.572Z,101063.22
2022-10-30T12:58:49.277Z,101064.06
2022-10-30T13:01:17.552Z,101065.72
2022-10-30T13:03:47.310Z,101071.97
2022-10-30T13:06:17.697Z,101060.66
2022-10-30T13:08:52.113Z,101061.41
2022-10-30T13:11:21.853Z,101057.31
2022-10-30T13:13:53.146Z,101049.44
2022-10-30T13:16:22.924Z,101053.50
2022-10-30T13:18:50.061Z,101053.97
2022-10-30T13:21:32.146Z,101055.19
2022-10-30T13:24:01.462Z,101067.19
2022-10-30T13:26:34.813Z,101054.37
2022-10-30T13:29:13.318Z,101046.84
2022-10-30T13:31:40.205Z,101047.47
2022-10-30T13:34:09.733Z,101046.34
2022-10-30T13:36:56.702Z,101041.91
2022-10-30T13:39:34.305Z,101037.75
2022-10-30T13:42:17.067Z,101031.41
2022-10-30T13:44:46.610Z,101030.72
2022-10-30T13:47:32.414Z,101023.00
2022-10-30T13:50:17.813Z,101023.25
2022-10-30T13:52:48.547Z,101020.63
2022-10-30T13:55:41.289Z,101016.81
2022-10-30T13:58:14.049Z,101016.41
2022-10-30T14:00:53.025Z,101011.50
2022-10-30T14:03:38.753Z,101022.12
2022-10-30T14:06:11.743Z,101014.38
2022-10-30T14:08:38.476Z,101001.84
2022-10-30T14:11:06.165Z,101003.47
2022-10-30T14:13:36.073Z,101009.28
2022-10-30T14:16:05.515Z,101012.12
2022-10-30T14:18:32.266Z,101014.75
2022-10-30T14:21:00.083Z,101019.31
2022-10-30T14:23:36.669Z,101019.63
2022-10-30T14:26:03.785Z,101019.84
2022-10-30T14:28:33.645Z,101013.81
2022-10-30T14:31:08.238Z,101023.16
2022-10-30T14:33:41.056Z,101019.84
2022-10-30T14:36:20.264Z,101022.72
2022-10-30T14:39:07.279Z,101020.75
2022-10-30T14:41:40.212Z,101020.22
2022-10-30T14:44:25.853Z,101021.78
2022-10-30T14:47:06.979Z,101018.56
2022-10-30T14:49:52.643Z,101008.97
2022-10-30T14:52:30.111Z,101008.16
2022-10-30T14:55:09.503Z,101003.47
2022-10-30T14:57:49.935Z,101006.97
2022-10-30T15:00:22.824Z,100995.31
2022-10-30T15:02:52.715Z,100993.59
2022-10-30T15:05:31.947Z,100994.31
2022-10-30T15:08:05.733Z,100996.06
2022-10-30T15:10:33.525Z,101001.62
2022-10-30T15:13:03.358Z,100996.50
2022-10-30T15:15:30.733Z,101004.75
2022-10-30T15:18:00.017Z,101003.78
2022-10-30T15:20:28.802Z,100999.31
2022-10-30T15:23:03.025Z,100994.31
2022-10-30T15:25:38.733Z,101002.41
2022-10-30T15:28:06.144Z,100999.41
2022-10-30T15:30:32.827Z,101008.69
2022-10-30T15:32:59.709Z,101016.47
2022-10-30T15:35:27.802Z,101012.72
2022-10-30T15:38:00.644Z,101017.69
2022-10-30T15:40:28.025Z,101019.41
2022-10-30T15:42:55.314Z,101019.13
2022-10-30T15:45:24.163Z,101015.53
2022-10-30T15:47:57.865Z,101024.22
2022-10-30T15:50:24.883Z,101021.47
2022-10-30T15:52:54.209Z,101022.91
2022-10-30T15:55:24.320Z,101026.22
2022-10-30T15:58:07.633Z,101024.81
2022-10-30T16:00:35.853Z,101031.91
2022-10-30T16:03:21.123Z,101033.56
2022-10-30T16:05:47.972Z,101037.72
2022-10-30T16:08:15.952Z,101034.75
2022-10-30T16:10:44.374Z,101036.87
2022-10-30T16:13:16.613Z,101033.19
2022-10-30T16:15:44.055Z,101038.03
2022-10-30T16:18:15.873Z,101035.41
2022-10-30T16:20:44.133Z,101030.72
2022-10-30T16:23:12.306Z,101034.84
2022-10-30T16:25:45.910Z,101024.69
2022-10-30T16:28:33.444Z,101033.06
2022-10-30T16:31:05.152Z,101034.31
2022-10-30T16:33:33.594Z,101027.63
2022-10-30T16:36:01.624Z,101032.94
2022-10-30T16:38:31.612Z,101036.09
2022-10-30T16:40:58.453Z,101031.78
2022-10-30T16:43:29.996Z,101041.22
2022-10-30T16:46:14.993Z,101036.41
2022-10-30T16:48:47.796Z,101031.06
2022-10-30T16:51:16.405Z,101037.13
2022-10-30T16:53:50.752Z,101045.81
2022-10-30T16:56:31.134Z,101051.31
2022-10-30T16:59:06.451Z,101041.69
2022-10-30T17:01:33.509Z,101040.56
2022-10-30T17:04:00.717Z,101047.31
2022-10-30T17:06:29.737Z,101051.97
2022-10-30T17:08:58.713Z,101054.56
2022-10-30T17:11:35.733Z,101056.78
2022-10-30T17:14:04.726Z,101052.75
2022-10-30T17:16:32.638Z,101058.31
2022-10-30T17:19:00.622Z,101060.00
2022-10-30T17:21:38.598Z,101066.88
2022-10-30T17:24:05.623Z,101063.69
2022-10-30T17:26:37.107Z,101062.81
2022-10-30T17:29:03.817Z,101059.00
2022-10-30T17:31:42.653Z,101049.03
2022-10-30T17:34:16.847Z,101059.72
2022-10-30T17:36:45.174Z,101054.75
2022-10-30T17:39:12.033Z,101057.69
2022-10-30T17:41:39.099Z,101060.59
2022-10-30T17:44:06.686Z,101054.72
2022-10-30T17:46:33.616Z,101054.78
2022-10-30T17:49:00.486Z,101054.22
2022-10-30T17:51:27.243Z,101053.53
2022-10-30T17:53:54.062Z,101063.22
2022-10-30T17:56:25.708Z,101069.09
2022-10-30T17:58:52.531Z,101065.28
2022-10-30T18:01:21.894Z,101059.84
2022-10-30T18:03:49.268Z,101061.13
2022-10-30T18:06:17.738Z,101060.78
2022-10-30T18:08:47.919Z,101060.19
2022-10-30T18:11:20.115Z,101067.81
2022-10-30T18:13:47.817Z,101068.09
2022-10-30T18:16:15.532Z,101065.31
2022-10-30T18:18:42.696Z,101071.72
2022-10-30T18:21:14.383Z,101067.97
2022-10-30T18:23:56.677Z,101061.78
2022-10-30T18:26:27.095Z,101068.09
2022-10-30T18:28:54.312Z,101058.59
2022-10-30T18:31:22.892Z,101064.31
2022-10-30T18:33:49.606Z,101077.31
2022-10-30T18:36:17.453Z,101064.03
2022-10-30T18:38:44.453Z,101066.75
2022-10-30T18:41:18.556Z,101068.06
2022-10-30T18:43:46.978Z,101071.22
2022-10-30T18:46:14.683Z,101068.22
2022-10-30T18:48:41.443Z,101068.31
2022-10-30T18:51:18.422Z,101068.34
2022-10-30T18:53:51.915Z,101067.34
2022-10-30T18:56:22.855Z,101067.06
2022-10-30T18:58:50.376Z,101073.94
2022-10-30T19:01:19.547Z,101070.34
2022-10-30T19:03:46.974Z,101071.25
2022-10-30T19:06:15.105Z,101068.03
2022-10-30T19:08:41.805Z,101064.34
2022-10-30T19:11:10.903Z,101065.59
2022-10-30T19:13:37.632Z,101057.87
2022-10-30T19:16:04.454Z,101062.91
2022-10-30T19:18:32.895Z,101066.94
2022-10-30T19:21:10.317Z,101061.50
2022-10-30T19:23:41.396Z,101062.34
2022-10-30T19:26:08.357Z,101066.56
2022-10-30T19:28:35.497Z,101059.38
2022-10-30T19:31:02.323Z,101062.09
2022-10-30T19:33:29.136Z,101048.31
2022-10-30T19:36:04.937Z,101052.16
2022-10-30T19:38:32.364Z,101052.75
2022-10-30T19:40:59.243Z,101052.28
2022-10-30T19:43:26.005Z,101055.69
2022-10-30T19:45:58.980Z,101058.16
2022-10-30T19:48:55.400Z,101050.91
2022-10-30T19:51:12.808Z,101045.34
2022-10-30T19:53:40.335Z,101056.28
2022-10-30T19:56:07.622Z,101050.37
2022-10-30T19:58:34.364Z,101051.50
2022-10-30T20:01:01.162Z,101055.22
2022-10-30T20:03:27.927Z,101054.41
2022-10-30T20:05:55.962Z,101054.34
2022-10-30T20:08:24.283Z,101061.78
2022-10-30T20:10:51.376Z,101063.63
2022-10-30T20:13:18.994Z,101063.56
2022-10-30T20:15:45.762Z,101061.63
2022-10-30T20:18:28.773Z,101058.97
2022-10-30T20:20:56.392Z,101065.59
2022-10-30T20:23:23.692Z,101063.41
2022-10-30T20:25:51.994Z,101067.31
2022-10-30T20:28:21.615Z,101060.09
2022-10-30T20:30:48.882Z,101061.38
2022-10-30T20:33:15.958Z,101065.44
2022-10-30T20:35:43.207Z,101061.81
2022-10-30T20:38:15.223Z,101074.09
2022-10-30T20:40:42.163Z,101062.47
2022-10-30T20:43:10.652Z,101059.75
2022-10-30T20:45:37.326Z,101054.28
2022-10-30T20:48:04.136Z,101060.16
2022-10-30T20:50:30.809Z,101057.34
2022-10-30T20:52:57.482Z,101059.06
2022-10-30T20:55:24.312Z,101066.16
2022-10-30T20:57:51.114Z,101069.19
2022-10-30T21:00:18.684Z,101070.94
2022-10-30T21:02:45.433Z,101068.00
2022-10-30T21:05:38.238Z,101069.81
2022-10-30T21:07:59.158Z,101067.06
2022-10-30T21:10:30.357Z,101065.19
2022-10-30T21:12:58.990Z,101073.00
2022-10-30T21:15:28.850Z,101070.25
2022-10-30T21:17:55.551Z,101064.84
2022-10-30T21:20:22.284Z,101062.34
2022-10-30T21:22:48.985Z,101067.44
2022-10-30T21:25:15.883Z,101069.94
2022-10-30T21:27:42.673Z,101071.66
2022-10-30T21:30:10.041Z,101073.50
2022-10-30T21:32:36.841Z,101070.63
2022-10-30T21:35:03.583Z,101068.72
2022-10-30T21:37:34.095Z,101065.88
2022-10-30T21:40:00.793Z,101064.00
2022-10-30T21:44:55.094Z,101058.91
2022-10-30T21:47:21.953Z,101056.63
2022-10-30T21:49:48.673Z,101061.31
2022-10-30T21:52:15.344Z,101058.75
2022-10-30T21:54:42.042Z,101061.25
2022-10-30T21:59:40.382Z,101058.31
2022-10-30T22:02:07.252Z,101052.84
2022-10-30T22:04:34.977Z,101057.59
2022-10-30T22:07:01.665Z,101045.56
2022-10-30T22:09:28.372Z,101051.44
2022-10-30T22:11:55.025Z,101059.25
2022-10-30T22:14:21.722Z,101054.50
2022-10-30T22:16:48.653Z,101057.44
2022-10-30T22:19:15.419Z,101054.72
2022-10-30T22:21:42.192Z,101060.44
2022-10-30T22:24:09.039Z,101050.72
2022-10-30T22:26:35.793Z,101051.91
2022-10-30T22:29:02.740Z,101054.72
2022-10-30T22:31:30.223Z,101049.50
2022-10-30T22:33:58.852Z,101052.62
2022-10-30T22:36:26.913Z,101043.16
2022-10-30T22:39:04.563Z,101044.13
2022-10-30T22:41:34.748Z,101047.56
2022-10-30T22:44:08.179Z,101043.56
2022-10-30T22:46:35.825Z,101052.47
2022-10-30T22:49:02.584Z,101047.53
2022-10-30T22:51:31.473Z,101048.09
2022-10-30T22:53:59.659Z,101038.22
2022-10-30T22:56:27.542Z,101035.25
2022-10-30T22:58:54.663Z,101039.03
2022-10-30T23:01:28.518Z,101044.56
2022-10-30T23:03:56.214Z,101039.75
2022-10-30T23:06:22.921Z,101044.56
2022-10-30T23:08:49.663Z,101042.56
2022-10-30T23:11:16.361Z,101041.66
2022-10-30T23:13:43.274Z,101043.41
2022-10-30T23:16:13.273Z,101046.59
2022-10-30T23:18:40.082Z,101041.53
2022-10-30T23:21:08.142Z,101038.88
2022-10-30T23:23:36.303Z,101035.97
2022-10-30T23:26:08.313Z,101034.78
2022-10-30T23:28:35.103Z,101036.56
2022-10-30T23:31:03.898Z,101038.34
2022-10-30T23:33:30.593Z,101035.41
2022-10-30T23:36:00.553Z,101034.41
2022-10-30T23:38:27.273Z,101037.81
2022-10-30T23:40:53.979Z,101041.47
2022-10-30T23:43:20.964Z,101031.94
2022-10-30T23:45:47.718Z,101031.56
2022-10-30T23:48:14.383Z,101032.69
2022-10-30T23:50:41.135Z,101029.94
2022-10-30T23:53:07.774Z,101027.97
2022-10-30T23:55:34.426Z,101022.47
2022-10-30T23:58:01.396Z,101024.13
